AIC131 YSCB-YMML

Flight info

Callsign AIC131
Flight time N/A
Altitude 32000
Route CB Q215 TANTA Q29 ML
Aircraft A320/M-SDE3FGHIRWY/LB1

Departure

Time 2026-05-04 10:22
Airport Canberra Airport (YSCB)

Arrival

Time N/A
Airport Melbourne Airport (YMML)
Time Latitude Longitude Altitude Speed Heading
2026-05-04 09:55 -35.30655 149.19054 1881 ft 0 kts 220°
2026-05-04 10:00 -35.30656 149.19053 1881 ft 0 kts 220°
2026-05-04 10:16 -35.30609 149.19095 1876 ft 2 kts 194°
2026-05-04 10:16 -35.30594 149.19095 1881 ft 2 kts 161°
2026-05-04 10:16 -35.30583 149.19089 1881 ft 0 kts 141°
2026-05-04 10:19 -35.30900 149.19243 1883 ft 19 kts 178°
2026-05-04 10:19 -35.31041 149.19239 1881 ft 22 kts 180°
2026-05-04 10:19 -35.31198 149.19242 1876 ft 24 kts 181°
2026-05-04 10:19 -35.31373 149.19239 1875 ft 26 kts 180°
2026-05-04 10:20 -35.31559 149.19240 1873 ft 27 kts 179°
2026-05-04 10:20 -35.31742 149.19239 1876 ft 26 kts 181°
2026-05-04 10:20 -35.31891 149.19240 1879 ft 12 kts 179°
2026-05-04 10:20 -35.31969 149.19274 1879 ft 12 kts 138°
2026-05-04 10:21 -35.32006 149.19332 1882 ft 0 kts 121°
2026-05-04 10:21 -35.32007 149.19343 1882 ft 3 kts 87°
2026-05-04 10:21 -35.31984 149.19423 1880 ft 16 kts 40°
2026-05-04 10:21 -35.31862 149.19445 1879 ft 20 kts 360°
2026-05-04 10:22 -35.31089 149.19439 1880 ft 124 kts 359°
2026-05-04 10:22 -35.30011 149.19422 1879 ft 184 kts 359°
2026-05-04 10:22 -35.28705 149.19404 2581 ft 188 kts 359°
2026-05-04 10:23 -35.27415 149.19443 3268 ft 184 kts
2026-05-04 10:23 -35.26153 149.19651 4052 ft 189 kts
2026-05-04 10:25 -35.14568 149.21131 8471 ft 283 kts
2026-05-04 10:25 -35.12601 149.21362 9358 ft 286 kts
2026-05-04 10:25 -35.10601 149.21607 10211 ft 291 kts
2026-05-04 10:25 -35.08510 149.21863 10622 ft 313 kts
2026-05-04 10:26 -35.06260 149.22137 10919 ft 336 kts
2026-05-04 10:26 -35.03895 149.22423 11589 ft 344 kts
2026-05-04 10:26 -35.01502 149.22712 12396 ft 347 kts
2026-05-04 10:26 -34.99082 149.23004 13178 ft 351 kts
2026-05-04 10:27 -34.96632 149.23129 13920 ft 355 kts 353°
2026-05-04 10:27 -34.94260 149.22311 14633 ft 358 kts 333°
2026-05-04 10:27 -34.92242 149.20521 15335 ft 362 kts 313°
2026-05-04 10:27 -34.90836 149.17985 16008 ft 365 kts 293°
2026-05-04 10:28 -34.90199 149.14989 16664 ft 369 kts 274°
2026-05-04 10:28 -34.90410 149.11876 17293 ft 372 kts 255°
2026-05-04 10:28 -34.91431 149.09018 17932 ft 376 kts 237°
2026-05-04 10:28 -34.93174 149.06648 18526 ft 380 kts 218°
2026-05-04 10:29 -34.95469 149.05036 19125 ft 384 kts 200°
2026-05-04 10:29 -34.98070 149.04259 19713 ft 388 kts 189°
2026-05-04 10:29 -35.00740 149.03669 20293 ft 391 kts 192°
2026-05-04 10:29 -35.03388 149.02841 20868 ft 395 kts 197°
2026-05-04 10:30 -35.05995 149.01754 21438 ft 398 kts 201°
2026-05-04 10:30 -35.08580 149.00500 21986 ft 401 kts 202°
2026-05-04 10:30 -35.11155 148.99161 22508 ft 404 kts 203°
2026-05-04 10:30 -35.13745 148.97782 23045 ft 407 kts 204°
2026-05-04 10:31 -35.16346 148.96391 23555 ft 410 kts 204°
2026-05-04 10:31 -35.18982 148.94984 23903 ft 414 kts 203°
2026-05-04 10:32 -35.35950 148.91047 24000 ft 415 kts 188°
2026-05-04 10:33 -35.38822 148.90567 24000 ft 418 kts 188°
2026-05-04 10:33 -35.41706 148.90087 24000 ft 419 kts 188°
2026-05-04 10:33 -35.44589 148.89608 24000 ft 417 kts 188°
2026-05-04 10:33 -35.47464 148.89131 24000 ft 416 kts 188°
2026-05-04 10:34 -35.50337 148.88654 24000 ft 417 kts 188°
2026-05-04 10:34 -35.53229 148.88173 24000 ft 420 kts 188°
2026-05-04 10:34 -35.56116 148.87693 24000 ft 419 kts 188°
2026-05-04 10:34 -35.59009 148.87212 24000 ft 420 kts 188°
2026-05-04 10:35 -35.61861 148.86736 24000 ft 419 kts 188°
2026-05-04 10:35 -35.64777 148.86192 23998 ft 418 kts 193°
2026-05-04 10:35 -35.67535 148.85077 24000 ft 418 kts 205°
2026-05-04 10:35 -35.70010 148.83314 24000 ft 417 kts 217°
2026-05-04 10:36 -35.72187 148.80897 24001 ft 418 kts 229°
2026-05-04 10:36 -35.73915 148.78072 24001 ft 420 kts 235°
2026-05-04 10:36 -35.75595 148.75116 24105 ft 422 kts 235°
2026-05-04 10:36 -35.77281 148.72158 24697 ft 421 kts 235°
2026-05-04 10:37 -35.78968 148.69198 25195 ft 424 kts 235°
2026-05-04 10:37 -35.80670 148.66210 25632 ft 428 kts 235°
2026-05-04 10:37 -35.82386 148.63192 26052 ft 431 kts 235°
2026-05-04 10:37 -35.84112 148.60156 26479 ft 434 kts 235°
2026-05-04 10:39 -35.94672 148.41467 28705 ft 450 kts 235°
2026-05-04 10:39 -35.96459 148.38288 29050 ft 452 kts 235°
2026-05-04 10:39 -35.98250 148.35100 29425 ft 453 kts 235°
2026-05-04 10:40 -36.00056 148.31883 29650 ft 457 kts 235°
2026-05-04 10:40 -36.01861 148.28664 30077 ft 456 kts 235°
2026-05-04 10:40 -36.03679 148.25419 30266 ft 462 kts 235°
2026-05-04 10:40 -36.05510 148.22148 30571 ft 463 kts 235°
2026-05-04 10:41 -36.07343 148.18871 30957 ft 464 kts 235°
2026-05-04 10:41 -36.09175 148.15592 31401 ft 462 kts 236°
2026-05-04 10:41 -36.10975 148.12367 31794 ft 461 kts 236°
2026-05-04 10:41 -36.12816 148.09067 31970 ft 459 kts 235°
2026-05-04 10:42 -36.14630 148.05824 32000 ft 456 kts 235°
2026-05-04 10:42 -36.18236 147.99375 32000 ft 457 kts 235°
2026-05-04 10:43 -36.21858 147.92882 32000 ft 456 kts 236°
2026-05-04 10:45 -36.36280 147.66889 32000 ft 458 kts 236°
2026-05-04 10:45 -36.39916 147.60288 32000 ft 461 kts 236°
2026-05-04 10:46 -36.44278 147.54651 32001 ft 458 kts 214°
2026-05-04 10:46 -36.47083 147.52780 32001 ft 460 kts 201°
2026-05-04 10:46 -36.50153 147.51638 32003 ft 461 kts 193°
2026-05-04 10:47 -36.56392 147.49943 32000 ft 458 kts 192°
2026-05-04 10:47 -36.62659 147.48252 32000 ft 463 kts 192°
2026-05-04 10:49 -36.87761 147.41437 32001 ft 465 kts 192°
2026-05-04 10:50 -36.94075 147.39713 32000 ft 461 kts 192°
2026-05-04 10:52 -37.19262 147.32791 32000 ft 461 kts 193°
2026-05-04 10:52 -37.25525 147.31059 31997 ft 461 kts 193°
2026-05-04 10:54 -37.50439 147.24129 32000 ft 459 kts 193°
2026-05-04 10:56 -37.67020 147.08313 32000 ft 456 kts 258°
2026-05-04 10:56 -37.67375 147.04392 32000 ft 457 kts 270°
2026-05-04 10:56 -37.67065 147.00404 32003 ft 458 kts 282°
2026-05-04 10:57 -37.66091 146.96567 32007 ft 458 kts 294°
2026-05-04 10:57 -37.64504 146.93095 32001 ft 458 kts 307°
2026-05-04 10:57 -37.62374 146.90128 32001 ft 459 kts 319°
2026-05-04 10:58 -37.57274 146.85293 32000 ft 458 kts 323°
2026-05-04 10:58 -37.52170 146.80383 32001 ft 465 kts 321°
2026-05-04 10:59 -37.47180 146.75279 32000 ft 460 kts 320°
2026-05-04 10:59 -37.42207 146.70126 32000 ft 465 kts 320°
2026-05-04 11:00 -37.37249 146.64997 32000 ft 459 kts 320°
2026-05-04 11:01 -37.19920 146.47159 30147 ft 457 kts 320°
2026-05-04 11:02 -37.17474 146.44651 29553 ft 453 kts 320°
2026-05-04 11:02 -37.15200 146.41954 28852 ft 451 kts 310°
2026-05-04 11:05 -37.26085 146.00048 23283 ft 354 kts 237°
2026-05-04 11:06 -37.27419 145.97505 22826 ft 352 kts 237°
2026-05-04 11:06 -37.28754 145.94957 22525 ft 346 kts 237°
2026-05-04 11:06 -37.30077 145.92432 22280 ft 347 kts 237°
2026-05-04 11:06 -37.31414 145.89880 22032 ft 351 kts 237°
2026-05-04 11:08 -37.40580 145.72401 19408 ft 333 kts 237°
2026-05-04 11:10 -37.47481 145.54717 17019 ft 301 kts 251°
2026-05-04 11:12 -37.51978 145.37788 14580 ft 285 kts 252°
2026-05-04 11:12 -37.52602 145.35426 14202 ft 284 kts 252°
2026-05-04 11:12 -37.53225 145.33069 13839 ft 282 kts 252°
2026-05-04 11:12 -37.53840 145.30736 13487 ft 280 kts 252°
2026-05-04 11:13 -37.54452 145.28416 13154 ft 278 kts 252°
2026-05-04 11:13 -37.55059 145.26112 12795 ft 276 kts 252°
2026-05-04 11:13 -37.55662 145.23818 12435 ft 275 kts 252°
2026-05-04 11:13 -37.56262 145.21537 12081 ft 273 kts 252°
2026-05-04 11:14 -37.56455 145.20802 11960 ft 273 kts 252°
2026-05-04 11:16 -37.69856 145.22613 8434 ft 262 kts 142°
2026-05-04 11:16 -37.71283 145.24035 8097 ft 260 kts 142°
2026-05-04 11:16 -37.72698 145.25446 7759 ft 259 kts 142°
2026-05-04 11:17 -37.74109 145.26853 7416 ft 258 kts 142°
2026-05-04 11:17 -37.75512 145.28252 7090 ft 257 kts 142°
2026-05-04 11:19 -37.84041 145.27422 5042 ft 247 kts 281°
2026-05-04 11:19 -37.83695 145.25299 5033 ft 246 kts 282°
2026-05-04 11:19 -37.83339 145.23182 5035 ft 246 kts 282°
2026-05-04 11:19 -37.82983 145.21064 5034 ft 246 kts 282°
2026-05-04 11:20 -37.82628 145.18947 5030 ft 246 kts 282°
2026-05-04 11:20 -37.82257 145.16833 5032 ft 246 kts 287°
2026-05-04 11:20 -37.81380 145.15008 5029 ft 246 kts 317°
2026-05-04 11:20 -37.79920 145.13963 4922 ft 242 kts 341°
2026-05-04 11:22 -37.69133 145.08864 3034 ft 235 kts 332°
2026-05-04 11:22 -37.67818 145.07670 3038 ft 235 kts 321°
2026-05-04 11:23 -37.66428 145.06592 3034 ft 235 kts 332°
2026-05-04 11:23 -37.64986 145.05635 2973 ft 233 kts 332°
2026-05-04 11:24 -37.56369 144.99916 2547 ft 252 kts 331°
2026-05-04 11:25 -37.54941 144.98580 2534 ft 255 kts 309°
2026-05-04 11:25 -37.54148 144.96675 2540 ft 239 kts 292°
2026-05-04 11:25 -37.53367 144.94908 2536 ft 223 kts 302°
2026-05-04 11:26 -37.51769 144.91815 2550 ft 210 kts 303°
2026-05-04 11:27 -37.57778 144.88655 4037 ft 215 kts 123°
2026-05-04 11:28 -37.58310 144.90408 4036 ft 216 kts 102°
2026-05-04 11:28 -37.58627 144.92253 4033 ft 215 kts 102°
2026-05-04 11:28 -37.58936 144.94102 4034 ft 216 kts 102°
2026-05-04 11:28 -37.59244 144.95951 4034 ft 215 kts 102°
2026-05-04 11:29 -37.59553 144.97802 4034 ft 215 kts 102°
2026-05-04 11:29 -37.59860 144.99647 4034 ft 215 kts 102°
2026-05-04 11:29 -37.60168 145.01498 4034 ft 215 kts 102°
2026-05-04 11:29 -37.60474 145.03345 4035 ft 216 kts 102°
2026-05-04 11:31 -37.65800 145.12161 3534 ft 212 kts 182°